sensor_id;sensor_type;location;lat;lon;timestamp;P1;durP1;ratioP1;P2;durP2;ratioP2
37955;SDS011;23776;51.592;7.180;2023-03-01T00:01:20;16.30;;;7.80;;
37955;SDS011;23776;51.592;7.180;2023-03-01T00:03:48;17.67;;;8.05;;
37955;SDS011;23776;51.592;7.180;2023-03-01T00:06:14;15.55;;;7.93;;
37955;SDS011;23776;51.592;7.180;2023-03-01T00:08:40;14.30;;;7.80;;
37955;SDS011;23776;51.592;7.180;2023-03-01T00:11:14;17.13;;;7.80;;
37955;SDS011;23776;51.592;7.180;2023-03-01T00:13:48;14.75;;;8.25;;
37955;SDS011;23776;51.592;7.180;2023-03-01T00:16:16;15.18;;;7.28;;
37955;SDS011;23776;51.592;7.180;2023-03-01T00:18:46;21.45;;;9.48;;
37955;SDS011;23776;51.592;7.180;2023-03-01T00:21:12;17.17;;;8.20;;
37955;SDS011;23776;51.592;7.180;2023-03-01T00:23:38;15.88;;;8.00;;
37955;SDS011;23776;51.592;7.180;2023-03-01T00:26:08;17.77;;;8.18;;
37955;SDS011;23776;51.592;7.180;2023-03-01T00:28:36;21.10;;;8.68;;
37955;SDS011;23776;51.592;7.180;2023-03-01T00:31:02;18.58;;;7.93;;
37955;SDS011;23776;51.592;7.180;2023-03-01T00:33:35;15.98;;;7.85;;
37955;SDS011;23776;51.592;7.180;2023-03-01T00:36:00;15.80;;;8.10;;
37955;SDS011;23776;51.592;7.180;2023-03-01T00:38:26;16.55;;;7.70;;
37955;SDS011;23776;51.592;7.180;2023-03-01T00:40:52;22.70;;;8.07;;
37955;SDS011;23776;51.592;7.180;2023-03-01T00:43:18;14.50;;;8.32;;
37955;SDS011;23776;51.592;7.180;2023-03-01T00:45:44;19.15;;;7.93;;
37955;SDS011;23776;51.592;7.180;2023-03-01T00:48:09;15.50;;;8.15;;
37955;SDS011;23776;51.592;7.180;2023-03-01T00:50:35;17.63;;;9.05;;
37955;SDS011;23776;51.592;7.180;2023-03-01T00:53:00;17.73;;;7.80;;
37955;SDS011;23776;51.592;7.180;2023-03-01T00:55:26;18.73;;;8.93;;
37955;SDS011;23776;51.592;7.180;2023-03-01T00:57:52;17.02;;;8.82;;
37955;SDS011;23776;51.592;7.180;2023-03-01T01:00:18;15.15;;;9.00;;
37955;SDS011;23776;51.592;7.180;2023-03-01T01:02:44;18.50;;;8.98;;
37955;SDS011;23776;51.592;7.180;2023-03-01T01:05:10;16.92;;;8.48;;
37955;SDS011;23776;51.592;7.180;2023-03-01T01:07:36;16.20;;;7.35;;
37955;SDS011;23776;51.592;7.180;2023-03-01T01:10:02;19.73;;;8.93;;
37955;SDS011;23776;51.592;7.180;2023-03-01T01:12:28;16.15;;;8.20;;
37955;SDS011;23776;51.592;7.180;2023-03-01T01:14:53;15.13;;;7.80;;
37955;SDS011;23776;51.592;7.180;2023-03-01T01:17:19;17.00;;;8.30;;
37955;SDS011;23776;51.592;7.180;2023-03-01T01:19:45;21.25;;;9.48;;
37955;SDS011;23776;51.592;7.180;2023-03-01T01:22:10;17.02;;;7.97;;
37955;SDS011;23776;51.592;7.180;2023-03-01T01:24:36;14.98;;;8.55;;
37955;SDS011;23776;51.592;7.180;2023-03-01T01:27:02;17.95;;;8.75;;
37955;SDS011;23776;51.592;7.180;2023-03-01T01:29:27;18.85;;;8.40;;
37955;SDS011;23776;51.592;7.180;2023-03-01T01:31:53;19.60;;;8.98;;
37955;SDS011;23776;51.592;7.180;2023-03-01T01:34:19;15.77;;;9.48;;
37955;SDS011;23776;51.592;7.180;2023-03-01T01:36:52;22.20;;;8.77;;
37955;SDS011;23776;51.592;7.180;2023-03-01T01:39:19;18.65;;;8.82;;
37955;SDS011;23776;51.592;7.180;2023-03-01T01:41:45;18.77;;;8.90;;
37955;SDS011;23776;51.592;7.180;2023-03-01T01:44:16;14.88;;;8.98;;
37955;SDS011;23776;51.592;7.180;2023-03-01T01:46:49;21.42;;;8.60;;
37955;SDS011;23776;51.592;7.180;2023-03-01T01:49:20;14.82;;;8.80;;
37955;SDS011;23776;51.592;7.180;2023-03-01T01:52:05;15.65;;;9.00;;
37955;SDS011;23776;51.592;7.180;2023-03-01T01:54:39;16.45;;;9.13;;
37955;SDS011;23776;51.592;7.180;2023-03-01T01:57:13;17.25;;;8.48;;
37955;SDS011;23776;51.592;7.180;2023-03-01T01:59:43;17.05;;;7.85;;
37955;SDS011;23776;51.592;7.180;2023-03-01T02:02:15;17.15;;;8.52;;
37955;SDS011;23776;51.592;7.180;2023-03-01T02:04:41;18.25;;;9.43;;
37955;SDS011;23776;51.592;7.180;2023-03-01T02:07:10;20.25;;;9.07;;
37955;SDS011;23776;51.592;7.180;2023-03-01T02:09:46;20.83;;;9.95;;
37955;SDS011;23776;51.592;7.180;2023-03-01T02:12:14;15.15;;;8.90;;
37955;SDS011;23776;51.592;7.180;2023-03-01T02:14:45;20.10;;;8.68;;
37955;SDS011;23776;51.592;7.180;2023-03-01T02:17:14;16.67;;;8.93;;
37955;SDS011;23776;51.592;7.180;2023-03-01T02:19:54;19.73;;;8.93;;
37955;SDS011;23776;51.592;7.180;2023-03-01T02:22:30;15.88;;;9.18;;
37955;SDS011;23776;51.592;7.180;2023-03-01T02:25:00;20.88;;;9.63;;
37955;SDS011;23776;51.592;7.180;2023-03-01T02:27:48;20.15;;;9.57;;
37955;SDS011;23776;51.592;7.180;2023-03-01T02:30:18;18.58;;;9.48;;
37955;SDS011;23776;51.592;7.180;2023-03-01T02:32:45;19.60;;;9.10;;
37955;SDS011;23776;51.592;7.180;2023-03-01T02:35:13;22.45;;;10.30;;
37955;SDS011;23776;51.592;7.180;2023-03-01T02:37:41;19.52;;;9.55;;
37955;SDS011;23776;51.592;7.180;2023-03-01T02:40:08;17.50;;;8.65;;
37955;SDS011;23776;51.592;7.180;2023-03-01T02:42:40;21.42;;;9.73;;
37955;SDS011;23776;51.592;7.180;2023-03-01T02:45:16;19.98;;;9.40;;
37955;SDS011;23776;51.592;7.180;2023-03-01T02:47:42;17.48;;;9.23;;
37955;SDS011;23776;51.592;7.180;2023-03-01T02:50:12;22.75;;;10.18;;
37955;SDS011;23776;51.592;7.180;2023-03-01T02:55:32;19.77;;;10.02;;
37955;SDS011;23776;51.592;7.180;2023-03-01T02:57:58;17.70;;;9.15;;
37955;SDS011;23776;51.592;7.180;2023-03-01T03:00:28;17.20;;;9.10;;
37955;SDS011;23776;51.592;7.180;2023-03-01T03:02:59;21.77;;;9.43;;
37955;SDS011;23776;51.592;7.180;2023-03-01T03:05:26;21.05;;;9.43;;
37955;SDS011;23776;51.592;7.180;2023-03-01T03:07:53;21.38;;;10.20;;
37955;SDS011;23776;51.592;7.180;2023-03-01T03:10:29;16.85;;;9.30;;
37955;SDS011;23776;51.592;7.180;2023-03-01T03:12:57;18.60;;;9.45;;
37955;SDS011;23776;51.592;7.180;2023-03-01T03:15:25;18.77;;;9.98;;
37955;SDS011;23776;51.592;7.180;2023-03-01T03:17:52;20.50;;;9.90;;
37955;SDS011;23776;51.592;7.180;2023-03-01T03:20:19;24.00;;;10.50;;
37955;SDS011;23776;51.592;7.180;2023-03-01T03:22:49;24.27;;;9.82;;
37955;SDS011;23776;51.592;7.180;2023-03-01T03:25:17;25.23;;;9.23;;
37955;SDS011;23776;51.592;7.180;2023-03-01T03:27:44;21.33;;;9.80;;
37955;SDS011;23776;51.592;7.180;2023-03-01T03:30:12;22.67;;;9.52;;
37955;SDS011;23776;51.592;7.180;2023-03-01T03:32:43;20.30;;;9.88;;
37955;SDS011;23776;51.592;7.180;2023-03-01T03:35:17;21.38;;;10.57;;
37955;SDS011;23776;51.592;7.180;2023-03-01T03:37:57;20.50;;;9.80;;
37955;SDS011;23776;51.592;7.180;2023-03-01T03:40:32;22.30;;;10.57;;
37955;SDS011;23776;51.592;7.180;2023-03-01T03:42:59;18.63;;;10.13;;
37955;SDS011;23776;51.592;7.180;2023-03-01T03:45:25;22.85;;;10.38;;
37955;SDS011;23776;51.592;7.180;2023-03-01T03:47:51;20.05;;;10.40;;
37955;SDS011;23776;51.592;7.180;2023-03-01T03:50:17;20.10;;;10.48;;
37955;SDS011;23776;51.592;7.180;2023-03-01T03:52:43;26.55;;;10.85;;
37955;SDS011;23776;51.592;7.180;2023-03-01T03:55:09;28.20;;;11.15;;
37955;SDS011;23776;51.592;7.180;2023-03-01T03:57:37;26.88;;;11.52;;
37955;SDS011;23776;51.592;7.180;2023-03-01T04:00:04;23.65;;;10.30;;
37955;SDS011;23776;51.592;7.180;2023-03-01T04:02:37;22.65;;;10.15;;
37955;SDS011;23776;51.592;7.180;2023-03-01T04:05:04;19.23;;;10.55;;
37955;SDS011;23776;51.592;7.180;2023-03-01T04:07:30;23.48;;;10.15;;
37955;SDS011;23776;51.592;7.180;2023-03-01T04:09:55;23.83;;;11.07;;
37955;SDS011;23776;51.592;7.180;2023-03-01T04:12:21;20.63;;;10.32;;
37955;SDS011;23776;51.592;7.180;2023-03-01T04:14:48;23.77;;;9.30;;
37955;SDS011;23776;51.592;7.180;2023-03-01T04:17:13;21.70;;;10.55;;
37955;SDS011;23776;51.592;7.180;2023-03-01T04:19:39;25.60;;;9.73;;
37955;SDS011;23776;51.592;7.180;2023-03-01T04:22:05;17.88;;;10.50;;
37955;SDS011;23776;51.592;7.180;2023-03-01T04:24:34;23.92;;;11.52;;
37955;SDS011;23776;51.592;7.180;2023-03-01T04:27:00;21.80;;;9.82;;
37955;SDS011;23776;51.592;7.180;2023-03-01T04:29:26;19.02;;;10.45;;
37955;SDS011;23776;51.592;7.180;2023-03-01T04:31:52;23.83;;;10.02;;
37955;SDS011;23776;51.592;7.180;2023-03-01T04:34:18;20.13;;;9.88;;
37955;SDS011;23776;51.592;7.180;2023-03-01T04:36:44;22.60;;;10.07;;
37955;SDS011;23776;51.592;7.180;2023-03-01T04:39:09;23.58;;;10.00;;
37955;SDS011;23776;51.592;7.180;2023-03-01T04:41:38;21.63;;;9.75;;
37955;SDS011;23776;51.592;7.180;2023-03-01T04:44:04;20.95;;;10.00;;
37955;SDS011;23776;51.592;7.180;2023-03-01T04:46:30;24.70;;;10.77;;
37955;SDS011;23776;51.592;7.180;2023-03-01T04:48:56;20.80;;;9.80;;
37955;SDS011;23776;51.592;7.180;2023-03-01T04:51:22;24.98;;;10.77;;
37955;SDS011;23776;51.592;7.180;2023-03-01T04:53:47;24.13;;;11.27;;
37955;SDS011;23776;51.592;7.180;2023-03-01T04:56:13;27.23;;;11.05;;
37955;SDS011;23776;51.592;7.180;2023-03-01T04:58:39;21.08;;;9.82;;
37955;SDS011;23776;51.592;7.180;2023-03-01T05:01:12;19.92;;;10.02;;
37955;SDS011;23776;51.592;7.180;2023-03-01T05:03:42;21.88;;;10.23;;
37955;SDS011;23776;51.592;7.180;2023-03-01T05:06:09;25.30;;;10.95;;
37955;SDS011;23776;51.592;7.180;2023-03-01T05:08:35;26.23;;;11.05;;
37955;SDS011;23776;51.592;7.180;2023-03-01T05:11:02;20.98;;;10.80;;
37955;SDS011;23776;51.592;7.180;2023-03-01T05:13:28;23.27;;;10.77;;
37955;SDS011;23776;51.592;7.180;2023-03-01T05:15:54;20.92;;;9.95;;
37955;SDS011;23776;51.592;7.180;2023-03-01T05:18:25;19.70;;;9.98;;
37955;SDS011;23776;51.592;7.180;2023-03-01T05:20:53;23.73;;;10.98;;
37955;SDS011;23776;51.592;7.180;2023-03-01T05:23:21;20.73;;;9.93;;
37955;SDS011;23776;51.592;7.180;2023-03-01T05:25:47;21.65;;;11.13;;
37955;SDS011;23776;51.592;7.180;2023-03-01T05:28:14;19.67;;;9.60;;
37955;SDS011;23776;51.592;7.180;2023-03-01T05:30:40;18.75;;;10.23;;
37955;SDS011;23776;51.592;7.180;2023-03-01T05:33:06;19.67;;;10.38;;
37955;SDS011;23776;51.592;7.180;2023-03-01T05:35:38;25.60;;;11.52;;
37955;SDS011;23776;51.592;7.180;2023-03-01T05:38:05;22.58;;;10.18;;
37955;SDS011;23776;51.592;7.180;2023-03-01T05:40:32;24.10;;;11.20;;
37955;SDS011;23776;51.592;7.180;2023-03-01T05:42:59;22.98;;;10.65;;
37955;SDS011;23776;51.592;7.180;2023-03-01T05:45:25;21.98;;;11.32;;
37955;SDS011;23776;51.592;7.180;2023-03-01T05:47:52;28.92;;;11.13;;
37955;SDS011;23776;51.592;7.180;2023-03-01T05:50:21;27.02;;;11.75;;
37955;SDS011;23776;51.592;7.180;2023-03-01T05:52:51;27.92;;;10.93;;
37955;SDS011;23776;51.592;7.180;2023-03-01T05:55:33;23.27;;;11.43;;
37955;SDS011;23776;51.592;7.180;2023-03-01T05:58:00;24.55;;;10.25;;
37955;SDS011;23776;51.592;7.180;2023-03-01T06:00:27;26.98;;;11.88;;
37955;SDS011;23776;51.592;7.180;2023-03-01T06:02:54;28.30;;;11.80;;
37955;SDS011;23776;51.592;7.180;2023-03-01T06:05:20;22.45;;;11.45;;
37955;SDS011;23776;51.592;7.180;2023-03-01T06:07:47;22.90;;;10.88;;
37955;SDS011;23776;51.592;7.180;2023-03-01T06:10:13;24.77;;;11.93;;
37955;SDS011;23776;51.592;7.180;2023-03-01T06:12:40;26.27;;;11.90;;
37955;SDS011;23776;51.592;7.180;2023-03-01T06:15:06;29.25;;;12.25;;
37955;SDS011;23776;51.592;7.180;2023-03-01T06:17:34;24.42;;;11.70;;
37955;SDS011;23776;51.592;7.180;2023-03-01T06:20:03;21.67;;;10.98;;
37955;SDS011;23776;51.592;7.180;2023-03-01T06:22:33;23.65;;;10.90;;
37955;SDS011;23776;51.592;7.180;2023-03-01T06:24:59;26.52;;;11.82;;
37955;SDS011;23776;51.592;7.180;2023-03-01T06:27:25;26.33;;;13.70;;
37955;SDS011;23776;51.592;7.180;2023-03-01T06:29:50;22.48;;;11.60;;
37955;SDS011;23776;51.592;7.180;2023-03-01T06:32:16;23.35;;;11.43;;
37955;SDS011;23776;51.592;7.180;2023-03-01T06:34:41;20.92;;;11.48;;
37955;SDS011;23776;51.592;7.180;2023-03-01T06:37:07;27.50;;;12.20;;
37955;SDS011;23776;51.592;7.180;2023-03-01T06:39:33;24.88;;;12.10;;
37955;SDS011;23776;51.592;7.180;2023-03-01T06:41:58;23.13;;;12.00;;
37955;SDS011;23776;51.592;7.180;2023-03-01T06:44:24;36.67;;;13.55;;
37955;SDS011;23776;51.592;7.180;2023-03-01T06:46:50;23.67;;;12.18;;
37955;SDS011;23776;51.592;7.180;2023-03-01T06:49:16;25.80;;;12.75;;
37955;SDS011;23776;51.592;7.180;2023-03-01T06:51:42;26.27;;;12.60;;
37955;SDS011;23776;51.592;7.180;2023-03-01T06:54:09;23.98;;;12.52;;
37955;SDS011;23776;51.592;7.180;2023-03-01T06:56:35;27.95;;;12.57;;
37955;SDS011;23776;51.592;7.180;2023-03-01T06:59:01;29.58;;;12.85;;
37955;SDS011;23776;51.592;7.180;2023-03-01T07:01:27;25.13;;;12.55;;
37955;SDS011;23776;51.592;7.180;2023-03-01T07:03:53;25.50;;;12.85;;
37955;SDS011;23776;51.592;7.180;2023-03-01T07:06:19;27.55;;;13.40;;
37955;SDS011;23776;51.592;7.180;2023-03-01T07:08:45;26.55;;;12.55;;
37955;SDS011;23776;51.592;7.180;2023-03-01T07:11:11;24.92;;;12.25;;
37955;SDS011;23776;51.592;7.180;2023-03-01T07:13:36;28.52;;;12.65;;
37955;SDS011;23776;51.592;7.180;2023-03-01T07:16:02;30.13;;;12.98;;
37955;SDS011;23776;51.592;7.180;2023-03-01T07:18:28;29.17;;;13.23;;
37955;SDS011;23776;51.592;7.180;2023-03-01T07:20:53;27.85;;;13.27;;
37955;SDS011;23776;51.592;7.180;2023-03-01T07:23:19;25.88;;;12.82;;
37955;SDS011;23776;51.592;7.180;2023-03-01T07:25:50;22.85;;;12.05;;
37955;SDS011;23776;51.592;7.180;2023-03-01T07:28:17;30.38;;;12.25;;
37955;SDS011;23776;51.592;7.180;2023-03-01T07:30:42;24.30;;;11.65;;
37955;SDS011;23776;51.592;7.180;2023-03-01T07:33:08;28.70;;;13.43;;
37955;SDS011;23776;51.592;7.180;2023-03-01T07:35:33;22.67;;;12.18;;
37955;SDS011;23776;51.592;7.180;2023-03-01T07:37:59;23.55;;;12.25;;
37955;SDS011;23776;51.592;7.180;2023-03-01T07:40:24;23.08;;;12.00;;
37955;SDS011;23776;51.592;7.180;2023-03-01T07:42:54;27.83;;;12.05;;
37955;SDS011;23776;51.592;7.180;2023-03-01T07:45:21;23.40;;;12.00;;
37955;SDS011;23776;51.592;7.180;2023-03-01T07:47:46;24.95;;;11.70;;
37955;SDS011;23776;51.592;7.180;2023-03-01T07:50:12;25.38;;;13.48;;
37955;SDS011;23776;51.592;7.180;2023-03-01T07:52:38;25.00;;;12.02;;
37955;SDS011;23776;51.592;7.180;2023-03-01T07:55:04;30.08;;;12.05;;
37955;SDS011;23776;51.592;7.180;2023-03-01T07:57:30;30.92;;;13.23;;
37955;SDS011;23776;51.592;7.180;2023-03-01T07:59:56;26.52;;;12.45;;
37955;SDS011;23776;51.592;7.180;2023-03-01T08:02:22;27.67;;;12.77;;
37955;SDS011;23776;51.592;7.180;2023-03-01T08:04:47;30.02;;;12.63;;
37955;SDS011;23776;51.592;7.180;2023-03-01T08:07:13;31.35;;;12.90;;
37955;SDS011;23776;51.592;7.180;2023-03-01T08:09:38;35.92;;;15.60;;
37955;SDS011;23776;51.592;7.180;2023-03-01T08:12:04;30.50;;;14.90;;
37955;SDS011;23776;51.592;7.180;2023-03-01T08:14:31;32.03;;;15.20;;
37955;SDS011;23776;51.592;7.180;2023-03-01T08:16:57;34.63;;;15.77;;
37955;SDS011;23776;51.592;7.180;2023-03-01T08:19:23;33.97;;;15.45;;
37955;SDS011;23776;51.592;7.180;2023-03-01T08:21:48;29.10;;;13.93;;
37955;SDS011;23776;51.592;7.180;2023-03-01T08:24:14;24.45;;;13.50;;
37955;SDS011;23776;51.592;7.180;2023-03-01T08:26:39;29.40;;;13.18;;
37955;SDS011;23776;51.592;7.180;2023-03-01T08:29:05;39.70;;;14.73;;
37955;SDS011;23776;51.592;7.180;2023-03-01T08:31:32;19.67;;;11.38;;
37955;SDS011;23776;51.592;7.180;2023-03-01T08:34:08;27.73;;;11.20;;
37955;SDS011;23776;51.592;7.180;2023-03-01T08:36:37;19.35;;;10.75;;
37955;SDS011;23776;51.592;7.180;2023-03-01T08:39:08;27.88;;;12.45;;
37955;SDS011;23776;51.592;7.180;2023-03-01T08:41:35;30.20;;;11.95;;
37955;SDS011;23776;51.592;7.180;2023-03-01T08:44:01;25.20;;;12.15;;
37955;SDS011;23776;51.592;7.180;2023-03-01T08:46:31;25.05;;;10.70;;
37955;SDS011;23776;51.592;7.180;2023-03-01T08:48:58;19.65;;;10.32;;
37955;SDS011;23776;51.592;7.180;2023-03-01T08:51:24;21.13;;;10.35;;
37955;SDS011;23776;51.592;7.180;2023-03-01T08:53:51;19.88;;;9.82;;
37955;SDS011;23776;51.592;7.180;2023-03-01T08:56:17;22.75;;;10.95;;
37955;SDS011;23776;51.592;7.180;2023-03-01T08:58:44;20.75;;;10.93;;
37955;SDS011;23776;51.592;7.180;2023-03-01T09:01:11;24.35;;;11.00;;
37955;SDS011;23776;51.592;7.180;2023-03-01T09:03:39;23.92;;;10.07;;
37955;SDS011;23776;51.592;7.180;2023-03-01T09:06:05;19.23;;;10.35;;
37955;SDS011;23776;51.592;7.180;2023-03-01T09:08:36;21.30;;;10.70;;
37955;SDS011;23776;51.592;7.180;2023-03-01T09:11:05;18.55;;;10.65;;
37955;SDS011;23776;51.592;7.180;2023-03-01T09:13:32;21.15;;;10.05;;
37955;SDS011;23776;51.592;7.180;2023-03-01T09:16:00;21.38;;;10.82;;
37955;SDS011;23776;51.592;7.180;2023-03-01T09:18:26;19.70;;;9.82;;
37955;SDS011;23776;51.592;7.180;2023-03-01T09:20:52;24.25;;;9.73;;
37955;SDS011;23776;51.592;7.180;2023-03-01T09:23:20;16.33;;;9.38;;
37955;SDS011;23776;51.592;7.180;2023-03-01T09:25:46;19.58;;;9.20;;
37955;SDS011;23776;51.592;7.180;2023-03-01T09:28:12;21.20;;;10.13;;
37955;SDS011;23776;51.592;7.180;2023-03-01T09:30:37;19.77;;;9.32;;
37955;SDS011;23776;51.592;7.180;2023-03-01T09:33:03;15.77;;;8.75;;
37955;SDS011;23776;51.592;7.180;2023-03-01T09:35:28;17.83;;;8.90;;
37955;SDS011;23776;51.592;7.180;2023-03-01T09:37:54;20.77;;;9.35;;
37955;SDS011;23776;51.592;7.180;2023-03-01T09:40:21;21.02;;;9.45;;
37955;SDS011;23776;51.592;7.180;2023-03-01T09:43:07;20.60;;;8.70;;
37955;SDS011;23776;51.592;7.180;2023-03-01T09:45:41;19.92;;;9.45;;
37955;SDS011;23776;51.592;7.180;2023-03-01T09:48:15;18.73;;;9.25;;
37955;SDS011;23776;51.592;7.180;2023-03-01T09:50:43;19.10;;;9.27;;
37955;SDS011;23776;51.592;7.180;2023-03-01T09:53:16;19.50;;;9.52;;
37955;SDS011;23776;51.592;7.180;2023-03-01T09:56:00;17.13;;;8.35;;
37955;SDS011;23776;51.592;7.180;2023-03-01T09:58:32;15.23;;;8.45;;
37955;SDS011;23776;51.592;7.180;2023-03-01T10:06:46;20.02;;;8.38;;
37955;SDS011;23776;51.592;7.180;2023-03-01T10:09:23;21.38;;;8.18;;
37955;SDS011;23776;51.592;7.180;2023-03-01T10:11:50;18.05;;;8.68;;
37955;SDS011;23776;51.592;7.180;2023-03-01T10:16:57;20.50;;;8.85;;
37955;SDS011;23776;51.592;7.180;2023-03-01T10:22:20;15.57;;;8.35;;
37955;SDS011;23776;51.592;7.180;2023-03-01T10:24:47;16.77;;;9.35;;
37955;SDS011;23776;51.592;7.180;2023-03-01T10:27:17;21.38;;;7.88;;
37955;SDS011;23776;51.592;7.180;2023-03-01T10:32:37;19.08;;;8.32;;
37955;SDS011;23776;51.592;7.180;2023-03-01T10:35:16;15.38;;;7.75;;
37955;SDS011;23776;51.592;7.180;2023-03-01T10:40:31;13.25;;;6.95;;
37955;SDS011;23776;51.592;7.180;2023-03-01T10:42:58;21.13;;;8.43;;
37955;SDS011;23776;51.592;7.180;2023-03-01T10:45:36;16.25;;;7.60;;
37955;SDS011;23776;51.592;7.180;2023-03-01T10:48:23;16.35;;;8.02;;
37955;SDS011;23776;51.592;7.180;2023-03-01T10:53:33;13.60;;;7.38;;
37955;SDS011;23776;51.592;7.180;2023-03-01T10:56:11;15.95;;;7.35;;
37955;SDS011;23776;51.592;7.180;2023-03-01T10:58:39;14.52;;;7.63;;
37955;SDS011;23776;51.592;7.180;2023-03-01T11:01:35;14.52;;;7.60;;
37955;SDS011;23776;51.592;7.180;2023-03-01T11:06:32;15.60;;;6.82;;
37955;SDS011;23776;51.592;7.180;2023-03-01T11:09:12;16.38;;;8.02;;
37955;SDS011;23776;51.592;7.180;2023-03-01T11:11:53;12.05;;;6.82;;
37955;SDS011;23776;51.592;7.180;2023-03-01T11:14:25;17.75;;;7.25;;
37955;SDS011;23776;51.592;7.180;2023-03-01T11:17:15;11.70;;;6.97;;
37955;SDS011;23776;51.592;7.180;2023-03-01T11:19:59;14.93;;;6.55;;
37955;SDS011;23776;51.592;7.180;2023-03-01T11:22:47;16.15;;;6.32;;
37955;SDS011;23776;51.592;7.180;2023-03-01T11:25:30;12.98;;;6.25;;
37955;SDS011;23776;51.592;7.180;2023-03-01T11:28:05;13.18;;;6.18;;
37955;SDS011;23776;51.592;7.180;2023-03-01T11:30:39;12.45;;;5.93;;
37955;SDS011;23776;51.592;7.180;2023-03-01T11:36:19;12.52;;;6.00;;
37955;SDS011;23776;51.592;7.180;2023-03-01T11:38:55;12.18;;;5.95;;
37955;SDS011;23776;51.592;7.180;2023-03-01T11:41:26;13.63;;;6.40;;
37955;SDS011;23776;51.592;7.180;2023-03-01T11:43:59;12.23;;;6.75;;
37955;SDS011;23776;51.592;7.180;2023-03-01T12:07:01;13.07;;;6.15;;
37955;SDS011;23776;51.592;7.180;2023-03-01T12:12:30;11.20;;;5.72;;
37955;SDS011;23776;51.592;7.180;2023-03-01T12:17:43;11.75;;;5.93;;
37955;SDS011;23776;51.592;7.180;2023-03-01T12:20:49;9.13;;;5.65;;
37955;SDS011;23776;51.592;7.180;2023-03-01T12:26:26;10.98;;;5.65;;
37955;SDS011;23776;51.592;7.180;2023-03-01T12:35:03;11.15;;;5.88;;
37955;SDS011;23776;51.592;7.180;2023-03-01T12:43:01;12.57;;;6.38;;
37955;SDS011;23776;51.592;7.180;2023-03-01T12:45:48;11.68;;;6.82;;
37955;SDS011;23776;51.592;7.180;2023-03-01T12:51:04;9.65;;;6.43;;
37955;SDS011;23776;51.592;7.180;2023-03-01T12:53:36;12.30;;;5.88;;
37955;SDS011;23776;51.592;7.180;2023-03-01T12:56:17;13.60;;;6.50;;
37955;SDS011;23776;51.592;7.180;2023-03-01T13:02:02;12.40;;;6.50;;
37955;SDS011;23776;51.592;7.180;2023-03-01T13:07:28;16.77;;;6.72;;
37955;SDS011;23776;51.592;7.180;2023-03-01T13:17:51;14.75;;;7.97;;
37955;SDS011;23776;51.592;7.180;2023-03-01T13:20:20;14.52;;;6.88;;
37955;SDS011;23776;51.592;7.180;2023-03-01T13:26:06;11.65;;;7.05;;
37955;SDS011;23776;51.592;7.180;2023-03-01T13:31:56;12.27;;;6.95;;
37955;SDS011;23776;51.592;7.180;2023-03-01T13:33:57;14.13;;;7.07;;
37955;SDS011;23776;51.592;7.180;2023-03-01T13:44:26;16.05;;;7.95;;
37955;SDS011;23776;51.592;7.180;2023-03-01T13:49:36;16.63;;;8.35;;
37955;SDS011;23776;51.592;7.180;2023-03-01T13:53:01;18.50;;;9.00;;
37955;SDS011;23776;51.592;7.180;2023-03-01T13:57:39;20.50;;;9.07;;
37955;SDS011;23776;51.592;7.180;2023-03-01T14:00:07;28.20;;;8.93;;
37955;SDS011;23776;51.592;7.180;2023-03-01T14:03:41;17.17;;;8.50;;
37955;SDS011;23776;51.592;7.180;2023-03-01T14:05:38;16.17;;;8.70;;
37955;SDS011;23776;51.592;7.180;2023-03-01T14:08:05;18.10;;;9.27;;
37955;SDS011;23776;51.592;7.180;2023-03-01T14:19:29;14.63;;;7.97;;
37955;SDS011;23776;51.592;7.180;2023-03-01T14:21:59;14.68;;;7.05;;
37955;SDS011;23776;51.592;7.180;2023-03-01T14:24:31;13.18;;;7.32;;
37955;SDS011;23776;51.592;7.180;2023-03-01T14:27:02;20.15;;;8.85;;
37955;SDS011;23776;51.592;7.180;2023-03-01T14:29:33;15.10;;;7.95;;
37955;SDS011;23776;51.592;7.180;2023-03-01T14:34:46;15.27;;;7.15;;
37955;SDS011;23776;51.592;7.180;2023-03-01T14:37:30;17.60;;;7.15;;
37955;SDS011;23776;51.592;7.180;2023-03-01T14:39:58;15.93;;;6.82;;
37955;SDS011;23776;51.592;7.180;2023-03-01T14:42:26;12.82;;;6.72;;
37955;SDS011;23776;51.592;7.180;2023-03-01T14:44:54;12.07;;;6.55;;
37955;SDS011;23776;51.592;7.180;2023-03-01T14:47:29;15.85;;;7.00;;
37955;SDS011;23776;51.592;7.180;2023-03-01T14:49:58;13.48;;;6.88;;
37955;SDS011;23776;51.592;7.180;2023-03-01T14:52:31;11.15;;;6.95;;
37955;SDS011;23776;51.592;7.180;2023-03-01T14:55:05;16.65;;;7.47;;
37955;SDS011;23776;51.592;7.180;2023-03-01T14:57:42;15.88;;;7.80;;
37955;SDS011;23776;51.592;7.180;2023-03-01T15:00:16;17.70;;;7.05;;
37955;SDS011;23776;51.592;7.180;2023-03-01T15:02:47;15.73;;;7.28;;
37955;SDS011;23776;51.592;7.180;2023-03-01T15:05:15;14.30;;;7.22;;
37955;SDS011;23776;51.592;7.180;2023-03-01T15:07:47;11.18;;;6.88;;
37955;SDS011;23776;51.592;7.180;2023-03-01T15:10:25;13.07;;;7.40;;
37955;SDS011;23776;51.592;7.180;2023-03-01T15:13:09;16.88;;;7.22;;
37955;SDS011;23776;51.592;7.180;2023-03-01T15:15:36;13.25;;;7.50;;
37955;SDS011;23776;51.592;7.180;2023-03-01T15:18:19;14.43;;;6.90;;
37955;SDS011;23776;51.592;7.180;2023-03-01T15:20:47;19.90;;;7.50;;
37955;SDS011;23776;51.592;7.180;2023-03-01T15:23:19;15.95;;;8.38;;
37955;SDS011;23776;51.592;7.180;2023-03-01T15:25:48;17.77;;;7.95;;
37955;SDS011;23776;51.592;7.180;2023-03-01T15:28:21;13.27;;;7.43;;
37955;SDS011;23776;51.592;7.180;2023-03-01T15:30:55;23.27;;;8.00;;
37955;SDS011;23776;51.592;7.180;2023-03-01T15:35:53;14.93;;;8.05;;
37955;SDS011;23776;51.592;7.180;2023-03-01T15:41:31;16.08;;;8.00;;
37955;SDS011;23776;51.592;7.180;2023-03-01T15:44:16;13.30;;;7.13;;
37955;SDS011;23776;51.592;7.180;2023-03-01T15:46:46;13.23;;;7.88;;
37955;SDS011;23776;51.592;7.180;2023-03-01T15:52:00;13.95;;;7.00;;
37955;SDS011;23776;51.592;7.180;2023-03-01T15:54:27;18.15;;;7.88;;
37955;SDS011;23776;51.592;7.180;2023-03-01T15:56:54;17.20;;;7.93;;
37955;SDS011;23776;51.592;7.180;2023-03-01T15:59:20;20.88;;;10.20;;
37955;SDS011;23776;51.592;7.180;2023-03-01T16:01:47;16.65;;;8.05;;
37955;SDS011;23776;51.592;7.180;2023-03-01T16:04:13;18.27;;;8.25;;
37955;SDS011;23776;51.592;7.180;2023-03-01T16:06:49;16.33;;;8.10;;
37955;SDS011;23776;51.592;7.180;2023-03-01T16:09:24;17.92;;;7.63;;
37955;SDS011;23776;51.592;7.180;2023-03-01T16:11:51;20.23;;;8.23;;
37955;SDS011;23776;51.592;7.180;2023-03-01T16:14:18;16.27;;;7.10;;
37955;SDS011;23776;51.592;7.180;2023-03-01T16:16:43;15.75;;;7.30;;
37955;SDS011;23776;51.592;7.180;2023-03-01T16:19:10;18.25;;;7.63;;
37955;SDS011;23776;51.592;7.180;2023-03-01T16:21:36;16.27;;;6.80;;
37955;SDS011;23776;51.592;7.180;2023-03-01T16:24:02;16.35;;;6.93;;
37955;SDS011;23776;51.592;7.180;2023-03-01T16:26:28;16.55;;;6.22;;
37955;SDS011;23776;51.592;7.180;2023-03-01T16:28:54;13.13;;;6.63;;
37955;SDS011;23776;51.592;7.180;2023-03-01T16:31:21;13.02;;;6.55;;
37955;SDS011;23776;51.592;7.180;2023-03-01T16:33:47;13.52;;;6.45;;
37955;SDS011;23776;51.592;7.180;2023-03-01T16:36:15;14.50;;;6.70;;
37955;SDS011;23776;51.592;7.180;2023-03-01T16:38:43;13.95;;;7.45;;
37955;SDS011;23776;51.592;7.180;2023-03-01T16:41:12;19.52;;;6.82;;
37955;SDS011;23776;51.592;7.180;2023-03-01T16:43:39;15.48;;;7.85;;
37955;SDS011;23776;51.592;7.180;2023-03-01T16:46:16;16.65;;;7.32;;
37955;SDS011;23776;51.592;7.180;2023-03-01T16:48:44;14.95;;;6.97;;